DLH weather

Duluth International Airport
Duluth, Minnesota, United States

Public forecast

Using degrees Fahrenheit for public forecast. Weather courtesy of forecast.io.

Current aviation weather report (METAR) for Duluth International Airport

Retrieved 2019/12/12 08:32 UTC (0 seconds ago):

KDLH 120832Z 00000KT 3/4SM R09/P6000FT SN OVC022 M17/M19 A3027 RMK AO2 TWR VIS 1 P0001 T11671194

Aviation forecast (TAF) for Duluth International Airport

Retrieved 2019/12/12 06:30 UTC (2 hours ago):

TAF KDLH 120528Z 1206/1306 20004KT 4SM -SN OVC070 FM120800 VRB03KT 1SM -SN OVC008 FM121200 10005KT 1SM -SN OVC006 FM121700 09007KT 4SM -SN BKN010 FM122300 04004KT P6SM BKN013